createdAt,value
2019-04-13T00:00:27.558Z,3.60
2019-04-13T00:02:56.186Z,3.50
2019-04-13T00:05:29.140Z,3.40
2019-04-13T00:07:59.478Z,3.40
2019-04-13T00:10:29.677Z,3.30
2019-04-13T00:12:58.244Z,3.40
2019-04-13T00:15:26.920Z,3.30
2019-04-13T00:17:55.488Z,3.30
2019-04-13T00:20:24.026Z,3.20
2019-04-13T00:22:52.582Z,3.20
2019-04-13T00:25:21.127Z,3.30
2019-04-13T00:27:49.758Z,3.30
2019-04-13T00:30:18.306Z,3.40
2019-04-13T00:32:46.868Z,3.30
2019-04-13T00:35:15.468Z,3.30
2019-04-13T00:37:44.035Z,3.30
2019-04-13T00:40:12.732Z,3.30
2019-04-13T00:42:41.282Z,3.30
2019-04-13T00:45:09.954Z,3.20
2019-04-13T00:47:38.523Z,3.20
2019-04-13T00:50:07.402Z,3.20
2019-04-13T00:52:36.023Z,3.20
2019-04-13T00:55:05.404Z,3.20
2019-04-13T00:57:33.973Z,3.10
2019-04-13T01:00:02.594Z,3.10
2019-04-13T01:02:31.215Z,3.10
2019-04-13T01:04:59.751Z,3.00
2019-04-13T01:07:28.278Z,3.10
2019-04-13T01:09:56.856Z,3.10
2019-04-13T01:12:25.396Z,3.00
2019-04-13T01:14:53.968Z,3.00
2019-04-13T01:17:22.506Z,3.00
2019-04-13T01:19:51.148Z,3.10
2019-04-13T01:22:19.763Z,3.10
2019-04-13T01:24:48.326Z,3.10
2019-04-13T01:27:16.871Z,3.00
2019-04-13T01:29:45.435Z,3.00
2019-04-13T01:32:14.198Z,3.00
2019-04-13T01:34:42.835Z,2.90
2019-04-13T01:37:11.470Z,2.90
2019-04-13T01:39:40.087Z,2.90
2019-04-13T01:42:08.637Z,2.80
2019-04-13T01:44:37.269Z,2.70
2019-04-13T01:47:05.866Z,2.80
2019-04-13T01:49:34.420Z,2.90
2019-04-13T01:52:02.884Z,2.80
2019-04-13T01:54:31.447Z,2.80
2019-04-13T01:56:59.993Z,2.70
2019-04-13T01:59:28.559Z,2.70
2019-04-13T02:02:05.040Z,2.60
2019-04-13T02:04:50.570Z,2.60
2019-04-13T02:07:20.754Z,2.60
2019-04-13T02:10:02.935Z,2.60
2019-04-13T02:12:31.535Z,2.60
2019-04-13T02:15:00.083Z,2.60
2019-04-13T02:17:28.643Z,2.60
2019-04-13T02:19:57.183Z,2.60
2019-04-13T02:22:25.750Z,2.60
2019-04-13T02:24:54.263Z,2.60
2019-04-13T02:27:22.830Z,2.60
2019-04-13T02:29:51.447Z,2.60
2019-04-13T02:32:20.066Z,2.50
2019-04-13T02:34:48.603Z,2.50
2019-04-13T02:37:17.240Z,2.50
2019-04-13T02:39:45.770Z,2.50
2019-04-13T02:42:14.408Z,2.50
2019-04-13T02:44:43.016Z,2.50
2019-04-13T02:47:11.564Z,2.50
2019-04-13T02:49:40.111Z,2.50
2019-04-13T02:52:08.649Z,2.50
2019-04-13T02:54:37.289Z,2.60
2019-04-13T02:57:05.902Z,2.60
2019-04-13T02:59:34.527Z,2.60
2019-04-13T03:02:03.140Z,2.60
2019-04-13T03:04:31.703Z,2.60
2019-04-13T03:07:00.228Z,2.60
2019-04-13T03:09:28.863Z,2.60
2019-04-13T03:11:58.536Z,2.60
2019-04-13T03:14:27.155Z,2.60
2019-04-13T03:17:03.718Z,2.50
2019-04-13T03:19:33.914Z,2.50
2019-04-13T03:22:02.456Z,2.50
2019-04-13T03:24:31.007Z,2.50
2019-04-13T03:26:59.614Z,2.50
2019-04-13T03:29:28.180Z,2.40
2019-04-13T03:31:56.735Z,2.50
2019-04-13T03:34:25.349Z,2.50
2019-04-13T03:36:53.948Z,2.60
2019-04-13T03:39:22.509Z,2.60
2019-04-13T03:41:51.047Z,2.50
2019-04-13T03:44:19.620Z,2.40
2019-04-13T03:46:48.159Z,2.40
2019-04-13T03:49:16.718Z,2.40
2019-04-13T03:51:45.253Z,2.40
2019-04-13T03:54:13.882Z,2.30
2019-04-13T03:56:42.451Z,2.30
2019-04-13T03:59:11.044Z,2.30
2019-04-13T04:01:39.607Z,2.20
2019-04-13T04:04:08.155Z,2.20
2019-04-13T04:06:36.678Z,2.20
2019-04-13T04:09:07.078Z,2.20
2019-04-13T04:11:36.083Z,2.10
2019-04-13T04:14:04.719Z,2.20
2019-04-13T04:16:33.259Z,2.20
2019-04-13T04:19:01.828Z,2.20
2019-04-13T04:21:30.363Z,2.10
2019-04-13T04:23:58.924Z,2.20
2019-04-13T04:26:27.455Z,2.20
2019-04-13T04:28:56.086Z,2.30
2019-04-13T04:31:24.639Z,2.30
2019-04-13T04:33:53.191Z,2.20
2019-04-13T04:36:23.987Z,2.20
2019-04-13T04:38:51.939Z,2.20
2019-04-13T04:41:20.479Z,2.20
2019-04-13T04:43:49.043Z,2.10
2019-04-13T04:46:17.715Z,2.10
2019-04-13T04:48:46.280Z,2.10
2019-04-13T04:51:14.879Z,2.10
2019-04-13T04:53:43.446Z,2.10
2019-04-13T04:56:11.986Z,2.10
2019-04-13T04:58:40.543Z,2.10
2019-04-13T05:01:09.153Z,2.10
2019-04-13T05:03:37.783Z,2.10
2019-04-13T05:06:06.463Z,2.30
2019-04-13T05:08:34.996Z,2.20
2019-04-13T05:11:03.558Z,2.10
2019-04-13T05:13:32.166Z,2.10
2019-04-13T05:16:00.808Z,2.10
2019-04-13T05:18:29.340Z,2.20
2019-04-13T05:20:57.906Z,2.20
2019-04-13T05:23:26.436Z,2.30
2019-04-13T05:25:55.005Z,2.20
2019-04-13T05:28:23.551Z,2.20
2019-04-13T05:30:52.084Z,2.20
2019-04-13T05:33:20.643Z,2.30
2019-04-13T05:35:49.184Z,2.40
2019-04-13T05:38:18.315Z,2.40
2019-04-13T05:40:46.848Z,2.40
2019-04-13T05:43:15.411Z,2.30
2019-04-13T05:45:44.018Z,2.30
2019-04-13T05:48:12.587Z,2.30
2019-04-13T05:50:41.128Z,2.40
2019-04-13T05:53:09.761Z,2.40
2019-04-13T05:55:38.364Z,2.40
2019-04-13T05:58:07.001Z,2.50
2019-04-13T06:00:35.540Z,2.50
2019-04-13T06:03:06.500Z,2.50
2019-04-13T06:05:34.350Z,2.60
2019-04-13T06:08:02.930Z,2.60
2019-04-13T06:10:31.470Z,2.70
2019-04-13T06:13:00.023Z,2.70
2019-04-13T06:15:28.566Z,2.70
2019-04-13T06:17:57.167Z,2.80
2019-04-13T06:20:25.732Z,2.80
2019-04-13T06:22:54.333Z,2.80
2019-04-13T06:25:29.051Z,2.90
2019-04-13T06:27:53.212Z,2.90
2019-04-13T06:30:26.153Z,3.00
2019-04-13T06:32:56.390Z,3.00
2019-04-13T06:35:26.755Z,3.10
2019-04-13T06:37:55.578Z,3.10
2019-04-13T06:40:24.274Z,3.20
2019-04-13T06:42:54.709Z,3.30
2019-04-13T06:45:23.237Z,3.30
2019-04-13T06:47:51.807Z,3.20
2019-04-13T06:50:20.398Z,3.20
2019-04-13T06:52:49.008Z,3.20
2019-04-13T06:55:17.625Z,3.30
2019-04-13T06:57:46.240Z,3.30
2019-04-13T07:00:16.350Z,3.40
2019-04-13T07:02:44.960Z,3.40
2019-04-13T07:05:13.658Z,3.50
2019-04-13T07:07:52.304Z,3.60
2019-04-13T07:10:44.357Z,3.60
2019-04-13T07:13:14.575Z,3.60
2019-04-13T07:15:54.113Z,3.60
2019-04-13T07:18:22.714Z,3.70
2019-04-13T07:20:52.208Z,3.80
2019-04-13T07:23:25.152Z,3.80
2019-04-13T07:25:51.029Z,3.80
2019-04-13T07:28:19.565Z,3.80
2019-04-13T07:30:49.007Z,3.90
2019-04-13T07:33:18.034Z,4.00
2019-04-13T07:35:47.011Z,4.10
2019-04-13T07:38:16.338Z,4.20
2019-04-13T07:40:44.907Z,4.10
2019-04-13T07:43:13.489Z,4.00
2019-04-13T07:45:43.735Z,3.90
2019-04-13T07:48:32.220Z,3.90
2019-04-13T07:51:11.188Z,3.90
2019-04-13T07:53:39.822Z,4.00
2019-04-13T07:56:08.374Z,3.90
2019-04-13T07:58:36.999Z,3.90
2019-04-13T08:01:07.243Z,4.00
2019-04-13T08:03:35.786Z,4.20
2019-04-13T08:06:04.411Z,4.50
2019-04-13T08:08:39.816Z,4.60
2019-04-13T08:11:03.308Z,4.70
2019-04-13T08:13:31.847Z,4.60
2019-04-13T08:16:00.475Z,4.60
2019-04-13T08:18:33.547Z,4.70
2019-04-13T08:21:04.290Z,4.80
2019-04-13T08:23:32.404Z,4.80
2019-04-13T08:26:00.943Z,4.80
2019-04-13T08:28:29.591Z,4.70
2019-04-13T08:30:58.281Z,4.70
2019-04-13T08:33:26.848Z,4.70
2019-04-13T08:35:58.145Z,4.80
2019-04-13T08:38:26.320Z,4.80
2019-04-13T08:41:10.271Z,4.90
2019-04-13T08:43:26.061Z,5.00
2019-04-13T08:45:54.709Z,5.00
2019-04-13T08:48:23.252Z,5.20
2019-04-13T08:50:51.811Z,5.40
2019-04-13T08:53:20.352Z,5.50
2019-04-13T08:55:48.986Z,5.70
2019-04-13T08:58:17.519Z,5.70
2019-04-13T09:00:46.099Z,5.80
2019-04-13T09:03:14.637Z,5.90
2019-04-13T09:05:43.176Z,5.80
2019-04-13T09:08:14.281Z,5.90
2019-04-13T09:10:43.726Z,6.20
2019-04-13T09:13:13.106Z,6.40
2019-04-13T09:15:45.022Z,6.40
2019-04-13T09:18:28.011Z,6.40
2019-04-13T09:21:04.392Z,6.30
2019-04-13T09:23:27.838Z,6.20
2019-04-13T09:25:59.372Z,6.40
2019-04-13T09:28:28.005Z,6.60
2019-04-13T09:30:56.643Z,6.80
2019-04-13T09:33:25.271Z,7.00
2019-04-13T09:35:56.323Z,7.20
2019-04-13T09:38:24.104Z,7.30
2019-04-13T09:40:52.668Z,7.50
2019-04-13T09:43:22.867Z,7.50
2019-04-13T09:45:51.443Z,7.40
2019-04-13T09:48:20.051Z,7.30
2019-04-13T09:50:48.677Z,7.20
2019-04-13T09:53:17.245Z,7.20
2019-04-13T09:55:49.700Z,7.40
2019-04-13T09:58:15.987Z,7.50
2019-04-13T10:00:45.541Z,7.40
2019-04-13T10:03:14.262Z,7.20
2019-04-13T10:05:42.884Z,7.30
2019-04-13T10:08:11.426Z,7.50
2019-04-13T10:10:41.864Z,7.70
2019-04-13T10:13:18.104Z,7.90
2019-04-13T10:15:50.855Z,8.10
2019-04-13T10:18:25.898Z,8.10
2019-04-13T10:20:54.190Z,8.20
2019-04-13T10:23:22.716Z,8.30
2019-04-13T10:25:51.346Z,8.30
2019-04-13T10:28:19.947Z,8.50
2019-04-13T10:30:51.592Z,8.30
2019-04-13T10:33:18.713Z,8.10
2019-04-13T10:35:47.247Z,7.90
2019-04-13T10:38:15.824Z,7.70
2019-04-13T10:40:44.390Z,7.70
2019-04-13T10:43:16.482Z,7.90
2019-04-13T10:45:45.137Z,8.20
2019-04-13T10:48:28.812Z,8.20
2019-04-13T10:51:01.716Z,8.10
2019-04-13T10:53:30.275Z,7.90
2019-04-13T10:55:58.819Z,7.90
2019-04-13T10:58:27.393Z,8.10
2019-04-13T11:00:55.931Z,8.30
2019-04-13T11:03:24.480Z,8.40
2019-04-13T11:05:53.040Z,8.40
2019-04-13T11:08:21.721Z,8.40
2019-04-13T11:10:50.283Z,8.50
2019-04-13T11:13:18.968Z,8.50
2019-04-13T11:15:47.620Z,8.40
2019-04-13T11:18:16.307Z,8.10
2019-04-13T11:20:45.366Z,8.10
2019-04-13T11:23:14.432Z,8.30
2019-04-13T11:25:43.037Z,8.50
2019-04-13T11:28:11.677Z,8.60
2019-04-13T11:30:40.224Z,8.70
2019-04-13T11:33:08.863Z,8.70
2019-04-13T11:35:37.469Z,8.80
2019-04-13T11:38:06.103Z,8.70
2019-04-13T11:40:35.207Z,8.70
2019-04-13T11:43:11.203Z,9.00
2019-04-13T11:45:41.390Z,9.20
2019-04-13T11:48:28.047Z,9.30
2019-04-13T11:51:00.713Z,9.30
2019-04-13T11:53:29.386Z,8.90
2019-04-13T11:55:57.956Z,8.80
2019-04-13T11:58:26.558Z,9.00
2019-04-13T12:01:03.011Z,9.10
2019-04-13T12:03:33.213Z,9.10
2019-04-13T12:06:06.435Z,9.20
2019-04-13T12:08:39.300Z,9.20
2019-04-13T12:11:25.687Z,9.00
2019-04-13T12:13:55.876Z,8.90
2019-04-13T12:16:35.196Z,8.90
2019-04-13T12:19:17.831Z,8.80
2019-04-13T12:21:53.896Z,8.80
2019-04-13T12:24:26.320Z,8.90
2019-04-13T12:26:54.931Z,9.00
2019-04-13T12:29:23.483Z,9.20
2019-04-13T12:31:52.180Z,9.40
2019-04-13T12:34:23.601Z,9.50
2019-04-13T12:36:51.137Z,9.30
2019-04-13T12:39:20.576Z,9.20
2019-04-13T12:41:50.901Z,9.20
2019-04-13T12:44:19.604Z,9.40
2019-04-13T12:46:48.139Z,9.60
2019-04-13T12:49:16.746Z,9.70
2019-04-13T12:51:45.323Z,9.50
2019-04-13T12:54:13.858Z,9.30
2019-04-13T12:56:42.490Z,9.40
2019-04-13T12:59:11.104Z,9.50
2019-04-13T13:01:47.359Z,9.50
2019-04-13T13:04:16.041Z,9.40
2019-04-13T13:06:44.615Z,9.40
2019-04-13T13:09:14.298Z,9.20
2019-04-13T13:11:43.732Z,9.20
2019-04-13T13:14:12.807Z,9.30
2019-04-13T13:16:41.355Z,9.30
2019-04-13T13:19:10.004Z,9.20
2019-04-13T13:21:38.613Z,9.40
2019-04-13T13:24:07.480Z,9.50
2019-04-13T13:26:47.558Z,9.30
2019-04-13T13:29:06.376Z,9.20
2019-04-13T13:31:37.321Z,9.30
2019-04-13T13:34:05.153Z,9.30
2019-04-13T13:36:33.684Z,9.30
2019-04-13T13:39:02.323Z,9.40
2019-04-13T13:41:30.856Z,9.50
2019-04-13T13:43:59.422Z,9.50
2019-04-13T13:46:27.963Z,9.50
2019-04-13T13:48:56.601Z,9.30
2019-04-13T13:51:26.979Z,9.50
2019-04-13T13:53:55.340Z,9.70
2019-04-13T13:56:24.022Z,9.80
2019-04-13T13:58:56.836Z,10.00
2019-04-13T14:01:27.088Z,10.00
2019-04-13T14:03:55.737Z,10.10
2019-04-13T14:06:24.288Z,10.20
2019-04-13T14:08:52.839Z,10.10
2019-04-13T14:11:21.400Z,10.10
2019-04-13T14:13:49.937Z,10.00
2019-04-13T14:16:18.512Z,9.90
2019-04-13T14:18:48.691Z,9.60
2019-04-13T14:21:17.271Z,9.50
2019-04-13T14:23:45.827Z,9.60
2019-04-13T14:26:14.378Z,9.70
2019-04-13T14:28:42.923Z,9.70
2019-04-13T14:31:11.471Z,9.70
2019-04-13T14:33:40.015Z,9.70
2019-04-13T14:36:08.581Z,9.80
2019-04-13T14:38:37.115Z,9.80
2019-04-13T14:41:09.529Z,9.90
2019-04-13T14:43:37.674Z,10.00
2019-04-13T14:46:08.578Z,9.80
2019-04-13T14:48:37.549Z,9.90
2019-04-13T14:51:06.760Z,10.00
2019-04-13T14:53:35.447Z,10.00
2019-04-13T14:56:05.341Z,10.00
2019-04-13T14:58:35.589Z,10.10
2019-04-13T15:01:04.261Z,10.30
2019-04-13T15:03:32.949Z,10.40
2019-04-13T15:06:01.522Z,10.70
2019-04-13T15:08:30.050Z,10.80
2019-04-13T15:11:15.843Z,10.80
2019-04-13T15:13:29.593Z,10.50
2019-04-13T15:15:59.005Z,10.20
2019-04-13T15:18:39.196Z,9.80
2019-04-13T15:21:08.866Z,9.50
2019-04-13T15:23:40.036Z,9.50
2019-04-13T15:26:08.104Z,9.50
2019-04-13T15:28:38.379Z,9.50
2019-04-13T15:31:07.869Z,9.50
2019-04-13T15:33:37.221Z,9.50
2019-04-13T15:36:07.826Z,9.60
2019-04-13T15:38:37.370Z,9.70
2019-04-13T15:41:09.527Z,9.80
2019-04-13T15:43:37.975Z,9.80
2019-04-13T15:46:07.203Z,9.90
2019-04-13T15:48:36.775Z,9.80
2019-04-13T15:51:05.630Z,9.80
2019-04-13T15:53:34.536Z,9.80
2019-04-13T15:56:04.577Z,9.90
2019-04-13T15:58:33.148Z,9.80
2019-04-13T16:01:01.724Z,9.70
2019-04-13T16:03:30.510Z,9.60
2019-04-13T16:06:00.324Z,9.40
2019-04-13T16:08:30.731Z,9.30
2019-04-13T16:11:03.576Z,9.40
2019-04-13T16:13:32.605Z,9.30
2019-04-13T16:16:05.126Z,9.20
2019-04-13T16:18:34.769Z,9.20
2019-04-13T16:21:04.241Z,9.20
2019-04-13T16:23:33.002Z,9.20
2019-04-13T16:26:01.887Z,9.10
2019-04-13T16:28:35.236Z,9.00
2019-04-13T16:31:09.477Z,9.00
2019-04-13T16:33:47.086Z,8.90
2019-04-13T16:36:18.354Z,8.80
2019-04-13T16:38:54.699Z,8.80
2019-04-13T16:41:17.734Z,8.80
2019-04-13T16:43:51.598Z,8.70
2019-04-13T16:46:24.743Z,8.70
2019-04-13T16:49:07.699Z,8.60
2019-04-13T16:51:37.015Z,8.60
2019-04-13T16:54:17.081Z,8.60
2019-04-13T16:56:54.214Z,8.50
2019-04-13T16:59:24.609Z,8.50
2019-04-13T17:02:04.626Z,8.50
2019-04-13T17:04:36.001Z,8.40
2019-04-13T17:07:04.918Z,8.40
2019-04-13T17:09:33.505Z,8.40
2019-04-13T17:12:17.096Z,8.30
2019-04-13T17:14:33.550Z,8.30
2019-04-13T17:17:03.434Z,8.20
2019-04-13T17:19:40.707Z,8.10
2019-04-13T17:22:30.370Z,8.00
2019-04-13T17:25:03.444Z,8.00
2019-04-13T17:28:02.786Z,8.00
2019-04-13T17:30:36.033Z,7.90
2019-04-13T17:33:21.446Z,7.90
2019-04-13T17:35:51.490Z,7.90
2019-04-13T17:38:20.279Z,7.90
2019-04-13T17:40:53.635Z,7.90
2019-04-13T17:43:32.780Z,7.90
2019-04-13T17:46:03.100Z,7.90
2019-04-13T17:48:46.281Z,7.90
2019-04-13T17:51:23.069Z,7.80
2019-04-13T17:53:53.834Z,7.80
2019-04-13T17:56:24.158Z,7.70
2019-04-13T17:58:57.300Z,7.70
2019-04-13T18:01:44.043Z,7.70
2019-04-13T18:04:30.935Z,7.70
2019-04-13T18:07:17.995Z,7.60
2019-04-13T18:09:48.259Z,7.60
2019-04-13T18:12:21.264Z,7.60
2019-04-13T18:15:08.092Z,7.50
2019-04-13T18:17:41.033Z,7.40
2019-04-13T18:20:11.607Z,7.40
2019-04-13T18:22:41.389Z,7.30
2019-04-13T18:25:10.473Z,7.30
2019-04-13T18:27:39.240Z,7.20
2019-04-13T18:30:18.607Z,7.20
2019-04-13T18:32:38.336Z,7.20
2019-04-13T18:35:08.364Z,7.40
2019-04-13T18:37:37.062Z,7.40
2019-04-13T18:40:07.228Z,7.40
2019-04-13T18:42:36.735Z,7.40
2019-04-13T18:45:07.882Z,7.30
2019-04-13T18:47:37.064Z,7.10
2019-04-13T18:50:08.211Z,7.00
2019-04-13T18:52:36.795Z,7.00
2019-04-13T18:55:07.953Z,7.00
2019-04-13T18:57:38.320Z,6.90
2019-04-13T19:00:09.609Z,6.90
2019-04-13T19:02:38.230Z,6.80
2019-04-13T19:05:07.206Z,6.80
2019-04-13T19:07:35.785Z,6.70
2019-04-13T19:10:08.223Z,6.80
2019-04-13T19:12:36.868Z,6.90
2019-04-13T19:15:06.581Z,6.80
2019-04-13T19:17:35.150Z,6.80
2019-04-13T19:20:05.146Z,6.70
2019-04-13T19:22:33.712Z,6.80
2019-04-13T19:25:02.328Z,6.80
2019-04-13T19:27:30.903Z,6.90
2019-04-13T19:29:59.711Z,7.00
2019-04-13T19:32:28.274Z,7.10
2019-04-13T19:34:58.185Z,7.20
2019-04-13T19:37:26.743Z,7.20
2019-04-13T19:39:55.288Z,7.10
2019-04-13T19:42:23.850Z,7.20
2019-04-13T19:44:52.382Z,7.30
2019-04-13T19:47:20.944Z,7.20
2019-04-13T19:49:49.552Z,6.90
2019-04-13T19:52:28.303Z,6.80
2019-04-13T19:54:56.848Z,6.60
2019-04-13T19:57:25.411Z,6.60
2019-04-13T19:59:54.089Z,6.40
2019-04-13T20:02:24.314Z,6.40
2019-04-13T20:04:52.867Z,6.60
2019-04-13T20:07:21.437Z,6.80
2019-04-13T20:09:50.359Z,6.90
2019-04-13T20:12:18.922Z,6.90
2019-04-13T20:14:48.008Z,6.90
2019-04-13T20:17:16.683Z,6.90
2019-04-13T20:19:45.331Z,6.90
2019-04-13T20:22:13.974Z,6.60
2019-04-13T20:24:42.599Z,6.50
2019-04-13T20:27:11.198Z,6.40
2019-04-13T20:29:40.319Z,6.30
2019-04-13T20:32:10.202Z,6.40
2019-04-13T20:34:38.811Z,6.40
2019-04-13T20:37:07.896Z,6.30
2019-04-13T20:39:38.266Z,6.20
2019-04-13T20:42:14.114Z,6.10
2019-04-13T20:44:37.021Z,6.10
2019-04-13T20:47:06.804Z,6.00
2019-04-13T20:49:36.773Z,5.90
2019-04-13T20:52:05.554Z,5.80
2019-04-13T20:54:34.292Z,5.70
2019-04-13T20:57:04.138Z,5.80
2019-04-13T20:59:32.798Z,5.70
2019-04-13T21:02:02.300Z,5.70
2019-04-13T21:04:30.919Z,5.70
2019-04-13T21:06:59.464Z,5.90
2019-04-13T21:09:28.033Z,5.90
2019-04-13T21:11:56.815Z,5.80
2019-04-13T21:14:31.981Z,5.70
2019-04-13T21:16:56.044Z,5.70
2019-04-13T21:19:26.414Z,5.60
2019-04-13T21:21:56.275Z,5.60
2019-04-13T21:24:26.250Z,5.50
2019-04-13T21:26:54.987Z,5.50
2019-04-13T21:29:24.215Z,5.40
2019-04-13T21:31:54.204Z,5.40
2019-04-13T21:34:22.896Z,5.40
2019-04-13T21:36:52.038Z,5.40
2019-04-13T21:39:20.739Z,5.30
2019-04-13T21:41:49.851Z,5.40
2019-04-13T21:44:26.944Z,5.40
2019-04-13T21:46:48.609Z,5.40
2019-04-13T21:49:17.185Z,5.30
2019-04-13T21:51:53.439Z,5.20
2019-04-13T21:54:27.983Z,5.30
2019-04-13T21:56:57.950Z,5.20
2019-04-13T21:59:26.641Z,5.30
2019-04-13T22:02:02.841Z,5.50
2019-04-13T22:04:32.649Z,5.60
2019-04-13T22:07:02.525Z,5.40
2019-04-13T22:09:31.282Z,5.20
2019-04-13T22:12:00.487Z,5.10
2019-04-13T22:14:39.366Z,5.00
2019-04-13T22:17:00.498Z,5.10
2019-04-13T22:19:29.393Z,5.10
2019-04-13T22:21:58.931Z,5.10
2019-04-13T22:24:28.773Z,5.20
2019-04-13T22:26:58.623Z,5.30
2019-04-13T22:29:35.490Z,5.30
2019-04-13T22:32:08.196Z,5.40
2019-04-13T22:34:42.417Z,5.30
2019-04-13T22:37:12.360Z,5.20
2019-04-13T22:39:42.165Z,4.90
2019-04-13T22:42:10.732Z,4.70
2019-04-13T22:44:49.542Z,4.60
2019-04-13T22:47:10.473Z,4.60
2019-04-13T22:49:40.919Z,4.60
2019-04-13T22:52:17.378Z,4.70
2019-04-13T22:54:51.651Z,4.70
2019-04-13T22:57:25.634Z,4.80
2019-04-13T22:59:55.503Z,4.90
2019-04-13T23:02:34.911Z,4.90
2019-04-13T23:05:04.815Z,4.90
2019-04-13T23:07:34.669Z,4.90
2019-04-13T23:10:04.848Z,4.90
2019-04-13T23:12:33.591Z,4.90
2019-04-13T23:15:12.339Z,4.90
2019-04-13T23:17:33.306Z,4.90
2019-04-13T23:20:03.119Z,4.80
2019-04-13T23:22:32.079Z,4.80
2019-04-13T23:25:00.685Z,4.70
2019-04-13T23:27:29.247Z,4.70
2019-04-13T23:29:58.610Z,4.60
2019-04-13T23:32:27.346Z,4.70
2019-04-13T23:34:58.510Z,4.70
2019-04-13T23:37:26.243Z,4.70
2019-04-13T23:39:54.840Z,4.60
2019-04-13T23:42:24.348Z,4.60
2019-04-13T23:45:06.447Z,4.60
2019-04-13T23:47:25.127Z,4.50
2019-04-13T23:49:54.781Z,4.50
2019-04-13T23:52:24.062Z,4.50
2019-04-13T23:54:52.701Z,4.40
2019-04-13T23:57:25.719Z,4.30
